»·PEaware :: N164BW KPHX-KPRC

N164BW :: KPHX-KPRC

FLIGHT INFORMATION

Flight Status: Arrived
Operator: Privately registered:
United States
More flights under this callsign
Pilot: Steve R. (35445)
Aircraft: CIRRUS SR-22
(SR22)
More flights by this aircraft type
Origin: KPHX Phoenix Sky Harbor Intl
United States
Destination: KPRC Love
United States
More flights between these airports :: More routes between these airports
Route: PXR V105 DRK
File this flight plan on PilotEdge
Remarks:
Altitude:
(Current/Filed)
10,000ft
Speed:
(Current/Filed)
150kts
Departed: 01-Oct-23 02:07 PM
Arrived: 01-Oct-23 02:48 PM
Distance/Time
Traveled:
76nm/0:41
Distance/Time
To Go:
Arrived

Flight Plot

Page will automatically refresh every two minutes.


Map Options




Map Legend


Flown Route
Filed Route
Departure Airport
Arrival Airport
Navaid (VOR, NDB)
Fix

Horizontal Profiles

Position Reports

Time Latitude Longitude Heading Altitude Ground
Speed
01-Oct-23 13:44 33.427128 -112.016894 311 1125ft 0kts
01-Oct-23 13:45 33.427128 -112.016894 311 1125ft 0kts
01-Oct-23 13:46 33.427128 -112.016894 311 1125ft 0kts
01-Oct-23 13:47 33.427128 -112.016894 311 1125ft 0kts
01-Oct-23 13:48 33.427128 -112.016894 311 1125ft 0kts
01-Oct-23 13:49 33.427128 -112.016894 311 1125ft 0kts
01-Oct-23 13:50 33.427128 -112.016894 311 1125ft 0kts
01-Oct-23 13:51 33.427128 -112.016894 311 1125ft 0kts
01-Oct-23 13:52 33.427128 -112.016894 311 1125ft 0kts
01-Oct-23 13:53 33.427128 -112.016894 311 1125ft 0kts
01-Oct-23 13:54 33.427128 -112.016894 311 1125ft 0kts
01-Oct-23 13:55 33.427128 -112.016894 311 1125ft 0kts
01-Oct-23 13:56 33.427128 -112.016894 311 1125ft 0kts
01-Oct-23 13:57 33.427128 -112.016894 311 1125ft 0kts
01-Oct-23 13:58 33.427128 -112.016894 311 1125ft 0kts
01-Oct-23 13:59 33.427128 -112.016894 311 1125ft 0kts
01-Oct-23 14:00 33.427128 -112.016894 311 1125ft 0kts
01-Oct-23 14:01 33.427188 -112.016995 302 1117ft 0kts
01-Oct-23 14:02 33.427749 -112.020072 272 1123ft 16kts
01-Oct-23 14:03 33.427760 -112.026412 269 1123ft 19kts
01-Oct-23 14:04 33.427975 -112.026918 329 1123ft 0kts
01-Oct-23 14:05 33.427975 -112.026918 329 1123ft 0kts
01-Oct-23 14:06 33.428847 -112.021878 92 1132ft 76kts
01-Oct-23 14:07 33.433995 -111.990811 60 2204ft 104kts
01-Oct-23 14:08 33.449235 -111.958987 59 3444ft 108kts
01-Oct-23 14:09 33.465447 -111.927903 60 4716ft 109kts
01-Oct-23 14:10 33.488098 -111.889731 49 5012ft 176kts
01-Oct-23 14:11 33.531252 -111.876853 350 5990ft 140kts
01-Oct-23 14:12 33.564882 -111.882500 349 7082ft 121kts
01-Oct-23 14:13 33.598897 -111.887503 349 7867ft 126kts
01-Oct-23 14:14 33.631245 -111.900207 319 8558ft 123kts
01-Oct-23 14:15 33.655209 -111.926366 291 9093ft 115kts
01-Oct-23 14:16 33.675992 -111.956921 296 9450ft 119kts
01-Oct-23 14:17 33.697475 -111.987609 295 9650ft 120kts
01-Oct-23 14:18 33.719222 -112.018294 296 9746ft 121kts
01-Oct-23 14:19 33.741163 -112.049051 297 9777ft 122kts
01-Oct-23 14:20 33.763214 -112.079969 297 9783ft 121kts
01-Oct-23 14:21 33.785245 -112.110910 297 9838ft 121kts
01-Oct-23 14:22 33.807406 -112.142241 296 10024ft 135kts
01-Oct-23 14:23 33.837058 -112.183727 301 10020ft 176kts
01-Oct-23 14:24 33.869711 -112.229666 302 10015ft 182kts
01-Oct-23 14:25 33.912177 -112.263215 326 10005ft 188kts
01-Oct-23 14:26 33.959224 -112.292203 327 10010ft 190kts
01-Oct-23 14:27 34.006036 -112.321055 327 10005ft 188kts
01-Oct-23 14:28 34.053042 -112.350063 327 10012ft 190kts
01-Oct-23 14:29 34.100073 -112.379134 327 10010ft 186kts
01-Oct-23 14:30 34.145713 -112.407391 328 10015ft 184kts
01-Oct-23 14:31 34.192135 -112.436193 328 9882ft 196kts
01-Oct-23 14:32 34.239316 -112.465434 328 9871ft 189kts
01-Oct-23 14:33 34.287289 -112.490335 5 9870ft 191kts
01-Oct-23 14:34 34.339924 -112.479729 10 9900ft 193kts
01-Oct-23 14:35 34.393552 -112.468688 10 9921ft 198kts
01-Oct-23 14:36 34.447446 -112.457912 10 9942ft 194kts
01-Oct-23 14:37 34.500916 -112.447029 10 9966ft 194kts
01-Oct-23 14:38 34.554090 -112.435598 20 9989ft 193kts
01-Oct-23 14:39 34.597669 -112.399923 39 10004ft 188kts
01-Oct-23 14:40 34.640114 -112.362961 40 9822ft 176kts
01-Oct-23 14:41 34.677160 -112.331884 40 9238ft 149kts
01-Oct-23 14:42 34.713447 -112.327742 310 8271ft 150kts
01-Oct-23 14:43 34.711527 -112.361536 220 7326ft 112kts
01-Oct-23 14:44 34.693036 -112.381788 212 6893ft 54kts
01-Oct-23 14:45 34.678771 -112.393120 218 5504ft 66kts
01-Oct-23 14:46 34.666392 -112.406890 216 5185ft 64kts
01-Oct-23 14:47 34.657886 -112.415836 202 4987ft 21kts
01-Oct-23 14:48 34.656830 -112.415534 130 4989ft 0kts
01-Oct-23 14:49 34.652469 -112.419373 135 5009ft 15kts

Navigation Log

Ident Type
Flight plan parsing failed, navigation log unavailable